createdAt,value
2023-02-21T00:02:19.797Z,6.82
2023-02-21T00:07:45.273Z,6.76
2023-02-21T00:13:10.036Z,6.66
2023-02-21T00:18:34.624Z,6.57
2023-02-21T00:23:58.877Z,6.48
2023-02-21T00:29:23.309Z,6.38
2023-02-21T00:34:47.969Z,6.34
2023-02-21T00:40:12.567Z,6.31
2023-02-21T00:45:37.582Z,6.26
2023-02-21T00:51:02.373Z,6.22
2023-02-21T00:56:27.889Z,6.18
2023-02-21T01:01:52.442Z,6.17
2023-02-21T01:07:17.119Z,6.23
2023-02-21T01:12:42.040Z,6.27
2023-02-21T01:18:06.420Z,6.32
2023-02-21T01:23:32.872Z,6.39
2023-02-21T01:28:57.806Z,6.41
2023-02-21T01:34:22.817Z,6.40
2023-02-21T01:39:47.242Z,6.32
2023-02-21T01:45:48.219Z,6.24
2023-02-21T01:51:15.237Z,6.19
2023-02-21T01:56:39.966Z,6.16
2023-02-21T02:02:10.247Z,6.19
2023-02-21T02:07:35.688Z,6.28
2023-02-21T02:13:13.936Z,6.32
2023-02-21T02:18:43.305Z,6.31
2023-02-21T02:24:07.944Z,6.15
2023-02-21T02:29:32.759Z,5.85
2023-02-21T02:34:55.779Z,5.63
2023-02-21T02:40:08.246Z,5.44
2023-02-21T02:45:23.315Z,5.29
2023-02-21T02:50:32.467Z,5.20
2023-02-21T02:55:46.758Z,5.14
2023-02-21T03:01:03.284Z,5.12
2023-02-21T03:06:22.573Z,5.11
2023-02-21T03:11:28.790Z,5.11
2023-02-21T03:16:39.432Z,5.14
2023-02-21T03:21:51.750Z,5.16
2023-02-21T03:27:01.443Z,5.18
2023-02-21T03:32:35.977Z,5.20
2023-02-21T03:37:45.055Z,5.21
2023-02-21T03:42:51.053Z,5.24
2023-02-21T03:47:57.094Z,5.27
2023-02-21T03:53:02.978Z,5.27
2023-02-21T03:58:09.443Z,5.20
2023-02-21T04:03:16.001Z,5.12
2023-02-21T04:08:31.892Z,5.01
2023-02-21T04:13:37.698Z,4.98
2023-02-21T04:18:43.627Z,4.98
2023-02-21T04:23:50.343Z,5.00
2023-02-21T04:28:56.617Z,5.07
2023-02-21T04:34:11.830Z,5.19
2023-02-21T04:39:21.377Z,5.28
2023-02-21T04:44:28.249Z,5.34
2023-02-21T04:49:33.969Z,5.36
2023-02-21T04:54:39.772Z,5.39
2023-02-21T04:59:45.444Z,5.41
2023-02-21T05:04:51.141Z,5.42
2023-02-21T05:09:57.093Z,5.43
2023-02-21T05:15:02.725Z,5.43
2023-02-21T05:20:11.822Z,5.46
2023-02-21T05:25:19.095Z,5.49
2023-02-21T05:30:25.411Z,5.50
2023-02-21T05:35:31.378Z,5.48
2023-02-21T05:40:37.210Z,5.46
2023-02-21T05:45:42.916Z,5.47
2023-02-21T05:50:48.709Z,5.49
2023-02-21T05:55:54.339Z,5.57
2023-02-21T06:01:00.407Z,5.63
2023-02-21T06:06:06.692Z,5.65
2023-02-21T06:11:16.247Z,5.65
2023-02-21T06:16:25.498Z,5.65
2023-02-21T06:21:31.120Z,5.66
2023-02-21T06:26:41.288Z,5.66
2023-02-21T06:31:47.100Z,5.72
2023-02-21T06:36:55.229Z,5.81
2023-02-21T06:42:00.858Z,5.90
2023-02-21T06:47:07.792Z,5.96
2023-02-21T06:52:17.885Z,5.99
2023-02-21T06:57:26.005Z,5.98
2023-02-21T07:02:32.086Z,5.98
2023-02-21T07:07:39.087Z,6.05
2023-02-21T07:12:45.063Z,6.13
2023-02-21T07:17:50.760Z,6.16
2023-02-21T07:22:57.114Z,6.12
2023-02-21T07:28:04.810Z,6.06
2023-02-21T07:33:10.536Z,6.00
2023-02-21T07:38:23.080Z,5.95
2023-02-21T07:43:30.063Z,5.95
2023-02-21T07:48:35.747Z,5.97
2023-02-21T07:53:42.015Z,5.99
2023-02-21T07:58:48.036Z,6.01
2023-02-21T08:03:54.151Z,6.09
2023-02-21T08:08:59.879Z,6.16
2023-02-21T08:14:06.254Z,6.16
2023-02-21T08:19:12.058Z,6.18
2023-02-21T08:24:19.100Z,6.10
2023-02-21T08:29:26.116Z,5.95
2023-02-21T08:34:32.332Z,5.85
2023-02-21T08:39:38.521Z,5.82
2023-02-21T08:44:46.987Z,5.84
2023-02-21T08:49:52.705Z,5.85
2023-02-21T08:54:58.602Z,5.89
2023-02-21T09:00:09.288Z,5.96
2023-02-21T09:05:18.942Z,6.08
2023-02-21T09:10:25.085Z,6.23
2023-02-21T09:15:31.913Z,6.24
2023-02-21T09:20:42.378Z,6.24
2023-02-21T09:25:48.850Z,6.27
2023-02-21T09:30:54.525Z,6.40
2023-02-21T09:36:00.188Z,6.57
2023-02-21T09:41:09.169Z,6.57
2023-02-21T09:46:18.163Z,6.48
2023-02-21T09:51:25.353Z,6.34
2023-02-21T09:56:34.760Z,6.30
2023-02-21T10:01:58.625Z,6.36
2023-02-21T10:07:14.185Z,6.57
2023-02-21T10:12:27.542Z,6.87
2023-02-21T10:17:39.825Z,6.85
2023-02-21T10:22:48.557Z,6.96
2023-02-21T10:27:55.264Z,7.00
2023-02-21T10:33:06.615Z,7.24
2023-02-21T10:38:15.865Z,7.63
2023-02-21T10:43:28.493Z,8.02
2023-02-21T10:48:37.566Z,8.28
2023-02-21T10:53:44.920Z,8.49
2023-02-21T10:58:53.218Z,8.86
2023-02-21T11:04:01.920Z,9.16
2023-02-21T11:09:31.323Z,8.90
2023-02-21T11:14:37.144Z,8.68
2023-02-21T11:19:57.876Z,8.58
2023-02-21T11:25:09.020Z,8.12
2023-02-21T11:30:18.572Z,7.76
2023-02-21T11:35:27.749Z,7.53
2023-02-21T11:40:42.382Z,7.42
2023-02-21T11:45:59.756Z,7.36
2023-02-21T11:51:16.769Z,7.44
2023-02-21T11:56:34.518Z,7.68
2023-02-21T12:01:50.417Z,7.81
2023-02-21T12:07:05.764Z,7.80
2023-02-21T12:12:26.249Z,7.85
2023-02-21T12:17:50.752Z,8.46
2023-02-21T12:30:16.946Z,9.16
2023-02-21T12:36:02.390Z,9.57
2023-02-21T12:41:21.365Z,9.66
2023-02-21T12:46:32.957Z,9.67
2023-02-21T12:51:43.164Z,9.44
2023-02-21T12:56:53.828Z,9.28
2023-02-21T13:02:04.488Z,9.05
2023-02-21T13:07:21.693Z,8.70
2023-02-21T13:12:35.501Z,8.44
2023-02-21T13:17:42.875Z,8.27
2023-02-21T13:23:38.823Z,8.22
2023-02-21T13:29:03.195Z,8.12
2023-02-21T13:34:18.072Z,7.94
2023-02-21T13:39:32.391Z,7.68
2023-02-21T13:44:42.622Z,7.47
2023-02-21T13:49:54.451Z,7.43
2023-02-21T13:55:31.545Z,7.40
2023-02-21T14:00:54.130Z,7.33
2023-02-21T14:06:24.032Z,7.21
2023-02-21T14:11:36.155Z,7.11
2023-02-21T14:19:09.749Z,6.95
2023-02-21T14:24:21.179Z,6.84
2023-02-21T14:29:39.746Z,6.76
2023-02-21T14:34:56.360Z,6.79
2023-02-21T14:40:12.289Z,6.85
2023-02-21T14:45:29.841Z,6.84
2023-02-21T14:50:46.246Z,6.84
2023-02-21T14:56:16.005Z,6.80
2023-02-21T15:01:41.342Z,6.78
2023-02-21T15:07:00.068Z,6.78
2023-02-21T15:12:09.530Z,6.73
2023-02-21T15:17:20.893Z,6.67
2023-02-21T15:22:25.900Z,6.52
2023-02-21T15:27:31.737Z,6.36
2023-02-21T15:32:38.384Z,6.32
2023-02-21T15:37:45.715Z,6.34
2023-02-21T15:42:53.156Z,6.32
2023-02-21T15:48:01.438Z,6.24
2023-02-21T15:53:16.472Z,6.18
2023-02-21T15:58:25.233Z,6.11
2023-02-21T16:03:35.123Z,6.05
2023-02-21T16:08:51.898Z,5.98
2023-02-21T16:13:58.060Z,5.94
2023-02-21T16:19:04.200Z,5.94
2023-02-21T16:24:30.973Z,5.95
2023-02-21T16:29:37.549Z,5.93
2023-02-21T16:34:43.517Z,5.95
2023-02-21T16:39:50.476Z,5.99
2023-02-21T16:44:56.799Z,6.02
2023-02-21T16:50:05.007Z,6.02
2023-02-21T16:55:15.276Z,6.02
2023-02-21T17:00:23.268Z,6.04
2023-02-21T17:05:29.384Z,6.07
2023-02-21T17:10:35.515Z,6.08
2023-02-21T17:15:41.358Z,6.06
2023-02-21T17:20:48.492Z,6.01
2023-02-21T17:25:54.996Z,6.01
2023-02-21T17:31:00.768Z,6.03
2023-02-21T17:36:07.552Z,6.03
2023-02-21T17:41:15.896Z,6.00
2023-02-21T17:46:22.716Z,5.95
2023-02-21T17:51:29.018Z,5.89
2023-02-21T17:56:35.753Z,5.88
2023-02-21T18:01:41.958Z,5.89
2023-02-21T18:06:48.241Z,5.89
2023-02-21T18:11:56.408Z,5.84
2023-02-21T18:17:02.807Z,5.78
2023-02-21T18:22:09.861Z,5.72
2023-02-21T18:27:15.861Z,5.67
2023-02-21T18:32:23.952Z,5.62
2023-02-21T18:37:30.042Z,5.54
2023-02-21T18:42:36.394Z,5.40
2023-02-21T18:47:42.799Z,5.24
2023-02-21T18:52:49.017Z,5.11
2023-02-21T18:57:56.933Z,5.01
2023-02-21T19:03:06.101Z,4.90
2023-02-21T19:08:14.205Z,4.78
2023-02-21T19:13:20.665Z,4.65
2023-02-21T19:18:28.142Z,4.58
2023-02-21T19:23:36.847Z,4.58
2023-02-21T19:28:42.781Z,4.53
2023-02-21T19:33:49.517Z,4.42
2023-02-21T19:38:55.359Z,4.32
2023-02-21T19:44:01.726Z,4.25
2023-02-21T19:49:17.755Z,4.23
2023-02-21T19:54:30.925Z,4.30
2023-02-21T19:59:37.998Z,4.39
2023-02-21T20:04:44.011Z,4.46
2023-02-21T20:09:50.019Z,4.53
2023-02-21T20:14:56.746Z,4.59
2023-02-21T20:20:07.008Z,4.64
2023-02-21T20:25:13.691Z,4.67
2023-02-21T20:30:20.135Z,4.75
2023-02-21T20:35:26.810Z,4.85
2023-02-21T20:40:33.344Z,4.91
2023-02-21T20:45:39.248Z,4.88
2023-02-21T20:50:46.362Z,4.81
2023-02-21T20:55:52.428Z,4.74
2023-02-21T21:00:58.400Z,4.69
2023-02-21T21:06:04.624Z,4.65
2023-02-21T21:11:10.482Z,4.57
2023-02-21T21:16:18.174Z,4.48
2023-02-21T21:21:30.034Z,4.43
2023-02-21T21:26:35.829Z,4.43
2023-02-21T21:31:46.125Z,4.39
2023-02-21T21:36:53.370Z,4.34
2023-02-21T21:42:08.598Z,4.28
2023-02-21T21:47:15.679Z,4.24
2023-02-21T21:52:24.006Z,4.19
2023-02-21T21:57:30.513Z,4.12
2023-02-21T22:02:36.513Z,4.08
2023-02-21T22:07:42.867Z,4.06
2023-02-21T22:12:50.253Z,4.02
2023-02-21T22:17:56.368Z,3.96
2023-02-21T22:23:03.222Z,3.91
2023-02-21T22:28:12.980Z,3.92
2023-02-21T22:33:21.914Z,3.90
2023-02-21T22:38:27.829Z,3.86
2023-02-21T22:43:33.810Z,3.80
2023-02-21T22:48:40.116Z,3.78
2023-02-21T22:53:50.737Z,3.78
2023-02-21T22:58:59.879Z,3.74
2023-02-21T23:04:16.132Z,3.67
2023-02-21T23:09:24.373Z,3.58
2023-02-21T23:14:31.600Z,3.53
2023-02-21T23:19:37.754Z,3.48
2023-02-21T23:24:45.860Z,3.41
2023-02-21T23:29:54.073Z,3.33
2023-02-21T23:34:59.876Z,3.29
2023-02-21T23:40:15.617Z,3.28
2023-02-21T23:45:24.191Z,3.25
2023-02-21T23:50:32.672Z,3.10
2023-02-21T23:55:40.368Z,2.92
